sensor_id;sensor_type;location;lat;lon;timestamp;pressure;altitude;pressure_sealevel;temperature;humidity
38400;BME280;24180;42.676;23.320;2022-10-16T00:01:16;95381.97;;;7.84;100.00
38400;BME280;24180;42.676;23.320;2022-10-16T00:03:43;95373.72;;;7.79;100.00
38400;BME280;24180;42.676;23.320;2022-10-16T00:06:10;95372.50;;;7.61;100.00
38400;BME280;24180;42.676;23.320;2022-10-16T00:08:37;95384.00;;;7.68;100.00
38400;BME280;24180;42.676;23.320;2022-10-16T00:11:05;95386.22;;;7.61;100.00
38400;BME280;24180;42.676;23.320;2022-10-16T00:13:32;95392.56;;;7.68;100.00
38400;BME280;24180;42.676;23.320;2022-10-16T00:15:58;95392.19;;;7.85;100.00
38400;BME280;24180;42.676;23.320;2022-10-16T00:18:25;95386.06;;;7.63;100.00
38400;BME280;24180;42.676;23.320;2022-10-16T00:20:51;95392.19;;;7.62;100.00
38400;BME280;24180;42.676;23.320;2022-10-16T00:23:16;95392.53;;;7.57;100.00
38400;BME280;24180;42.676;23.320;2022-10-16T00:25:43;95395.41;;;7.52;100.00
38400;BME280;24180;42.676;23.320;2022-10-16T00:28:09;95393.16;;;7.48;100.00
38400;BME280;24180;42.676;23.320;2022-10-16T00:30:38;95390.00;;;7.44;100.00
38400;BME280;24180;42.676;23.320;2022-10-16T00:33:03;95385.47;;;7.35;100.00
38400;BME280;24180;42.676;23.320;2022-10-16T00:35:31;95408.63;;;7.48;100.00
38400;BME280;24180;42.676;23.320;2022-10-16T00:37:57;95399.69;;;7.65;100.00
38400;BME280;24180;42.676;23.320;2022-10-16T00:40:23;95394.81;;;7.73;100.00
38400;BME280;24180;42.676;23.320;2022-10-16T00:42:48;95400.81;;;7.49;100.00
38400;BME280;24180;42.676;23.320;2022-10-16T00:45:14;95399.75;;;7.52;100.00
38400;BME280;24180;42.676;23.320;2022-10-16T00:47:42;95400.94;;;7.59;100.00
38400;BME280;24180;42.676;23.320;2022-10-16T00:50:18;95389.16;;;7.68;100.00
38400;BME280;24180;42.676;23.320;2022-10-16T00:52:48;95384.66;;;7.59;100.00
38400;BME280;24180;42.676;23.320;2022-10-16T00:55:15;95389.16;;;7.68;100.00
38400;BME280;24180;42.676;23.320;2022-10-16T00:57:42;95391.13;;;7.64;100.00
38400;BME280;24180;42.676;23.320;2022-10-16T01:00:11;95395.97;;;7.69;100.00
38400;BME280;24180;42.676;23.320;2022-10-16T01:02:39;95400.56;;;7.52;100.00
38400;BME280;24180;42.676;23.320;2022-10-16T01:05:05;95399.75;;;7.76;100.00
38400;BME280;24180;42.676;23.320;2022-10-16T01:12:59;95405.50;;;7.56;100.00
38400;BME280;24180;42.676;23.320;2022-10-16T01:15:31;95399.06;;;7.50;100.00
38400;BME280;24180;42.676;23.320;2022-10-16T01:20:37;95393.81;;;7.39;100.00
38400;BME280;24180;42.676;23.320;2022-10-16T01:25:56;95389.53;;;7.27;100.00
38400;BME280;24180;42.676;23.320;2022-10-16T01:28:29;95383.66;;;7.25;100.00
38400;BME280;24180;42.676;23.320;2022-10-16T01:30:59;95388.19;;;7.34;100.00
38400;BME280;24180;42.676;23.320;2022-10-16T01:33:32;95369.22;;;7.22;100.00
38400;BME280;24180;42.676;23.320;2022-10-16T01:36:06;95392.81;;;7.29;100.00
38400;BME280;24180;42.676;23.320;2022-10-16T01:38:38;95385.31;;;7.26;100.00
38400;BME280;24180;42.676;23.320;2022-10-16T01:44:06;95386.03;;;7.28;100.00
38400;BME280;24180;42.676;23.320;2022-10-16T01:46:37;95392.97;;;7.38;100.00
38400;BME280;24180;42.676;23.320;2022-10-16T01:49:05;95397.84;;;7.30;100.00
38400;BME280;24180;42.676;23.320;2022-10-16T01:51:32;95388.63;;;7.15;100.00
38400;BME280;24180;42.676;23.320;2022-10-16T01:54:00;95401.81;;;7.11;100.00
38400;BME280;24180;42.676;23.320;2022-10-16T01:56:28;95401.38;;;6.93;100.00
38400;BME280;24180;42.676;23.320;2022-10-16T01:59:00;95401.06;;;6.97;100.00
38400;BME280;24180;42.676;23.320;2022-10-16T02:01:30;95398.47;;;6.97;100.00
38400;BME280;24180;42.676;23.320;2022-10-16T02:03:58;95407.13;;;6.96;100.00
38400;BME280;24180;42.676;23.320;2022-10-16T02:06:27;95416.19;;;7.02;100.00
38400;BME280;24180;42.676;23.320;2022-10-16T02:08:53;95415.56;;;6.98;100.00
38400;BME280;24180;42.676;23.320;2022-10-16T02:11:18;95406.28;;;6.96;100.00
38400;BME280;24180;42.676;23.320;2022-10-16T02:13:52;95408.56;;;6.88;100.00
38400;BME280;24180;42.676;23.320;2022-10-16T02:16:19;95400.94;;;6.86;100.00
38400;BME280;24180;42.676;23.320;2022-10-16T02:18:44;95420.09;;;6.82;100.00
38400;BME280;24180;42.676;23.320;2022-10-16T02:21:22;95429.78;;;6.91;100.00
38400;BME280;24180;42.676;23.320;2022-10-16T02:27:15;95437.19;;;6.96;100.00
38400;BME280;24180;42.676;23.320;2022-10-16T02:29:49;95435.16;;;6.88;100.00
38400;BME280;24180;42.676;23.320;2022-10-16T02:32:20;95431.03;;;6.86;100.00
38400;BME280;24180;42.676;23.320;2022-10-16T02:34:48;95432.66;;;6.87;100.00
38400;BME280;24180;42.676;23.320;2022-10-16T02:37:16;95427.84;;;6.70;100.00
38400;BME280;24180;42.676;23.320;2022-10-16T02:39:42;95416.91;;;6.66;100.00
38400;BME280;24180;42.676;23.320;2022-10-16T02:42:14;95425.38;;;6.68;100.00
38400;BME280;24180;42.676;23.320;2022-10-16T02:44:40;95437.41;;;6.68;100.00
38400;BME280;24180;42.676;23.320;2022-10-16T02:47:05;95423.72;;;6.67;100.00
38400;BME280;24180;42.676;23.320;2022-10-16T02:49:31;95425.59;;;6.52;100.00
38400;BME280;24180;42.676;23.320;2022-10-16T02:51:56;95406.97;;;6.49;100.00
38400;BME280;24180;42.676;23.320;2022-10-16T02:54:22;95435.56;;;6.57;100.00
38400;BME280;24180;42.676;23.320;2022-10-16T02:56:47;95442.78;;;6.65;100.00
38400;BME280;24180;42.676;23.320;2022-10-16T02:59:12;95446.78;;;6.56;100.00
38400;BME280;24180;42.676;23.320;2022-10-16T03:01:38;95448.34;;;6.46;100.00
38400;BME280;24180;42.676;23.320;2022-10-16T03:04:03;95447.91;;;6.52;100.00
38400;BME280;24180;42.676;23.320;2022-10-16T03:06:29;95440.91;;;6.54;100.00
38400;BME280;24180;42.676;23.320;2022-10-16T03:08:54;95445.03;;;6.56;100.00
38400;BME280;24180;42.676;23.320;2022-10-16T03:11:20;95450.09;;;6.45;100.00
38400;BME280;24180;42.676;23.320;2022-10-16T03:13:45;95445.34;;;6.52;100.00
38400;BME280;24180;42.676;23.320;2022-10-16T03:16:11;95452.03;;;6.42;100.00
38400;BME280;24180;42.676;23.320;2022-10-16T03:18:36;95458.09;;;6.41;100.00
38400;BME280;24180;42.676;23.320;2022-10-16T03:21:02;95456.34;;;6.41;100.00
38400;BME280;24180;42.676;23.320;2022-10-16T03:23:27;95451.84;;;6.45;100.00
38400;BME280;24180;42.676;23.320;2022-10-16T03:25:54;95463.13;;;6.42;100.00
38400;BME280;24180;42.676;23.320;2022-10-16T03:28:19;95451.22;;;6.41;100.00
38400;BME280;24180;42.676;23.320;2022-10-16T03:30:45;95462.72;;;6.36;100.00
38400;BME280;24180;42.676;23.320;2022-10-16T03:33:10;95465.91;;;6.39;100.00
38400;BME280;24180;42.676;23.320;2022-10-16T03:35:36;95462.91;;;6.20;100.00
38400;BME280;24180;42.676;23.320;2022-10-16T03:38:01;95457.34;;;6.26;100.00
38400;BME280;24180;42.676;23.320;2022-10-16T03:40:27;95469.31;;;6.52;100.00
38400;BME280;24180;42.676;23.320;2022-10-16T03:42:52;95463.53;;;6.36;100.00
38400;BME280;24180;42.676;23.320;2022-10-16T03:45:20;95449.22;;;6.20;100.00
38400;BME280;24180;42.676;23.320;2022-10-16T03:47:47;95450.94;;;6.06;100.00
38400;BME280;24180;42.676;23.320;2022-10-16T03:50:12;95447.34;;;6.09;100.00
38400;BME280;24180;42.676;23.320;2022-10-16T03:52:38;95450.34;;;6.16;100.00
38400;BME280;24180;42.676;23.320;2022-10-16T03:55:03;95447.84;;;6.01;100.00
38400;BME280;24180;42.676;23.320;2022-10-16T03:57:29;95446.03;;;6.16;100.00
38400;BME280;24180;42.676;23.320;2022-10-16T03:59:54;95441.59;;;6.18;100.00
38400;BME280;24180;42.676;23.320;2022-10-16T04:02:20;95436.00;;;5.99;100.00
38400;BME280;24180;42.676;23.320;2022-10-16T04:04:45;95452.34;;;5.98;100.00
38400;BME280;24180;42.676;23.320;2022-10-16T04:07:11;95451.34;;;6.00;100.00
38400;BME280;24180;42.676;23.320;2022-10-16T04:09:36;95444.88;;;6.07;100.00
38400;BME280;24180;42.676;23.320;2022-10-16T04:12:02;95456.69;;;6.10;100.00
38400;BME280;24180;42.676;23.320;2022-10-16T04:14:27;95453.63;;;6.05;100.00
38400;BME280;24180;42.676;23.320;2022-10-16T04:16:53;95441.88;;;6.01;100.00
38400;BME280;24180;42.676;23.320;2022-10-16T04:19:18;95448.63;;;5.89;100.00
38400;BME280;24180;42.676;23.320;2022-10-16T04:21:44;95456.16;;;5.78;100.00
38400;BME280;24180;42.676;23.320;2022-10-16T04:24:09;95452.66;;;5.79;100.00
38400;BME280;24180;42.676;23.320;2022-10-16T04:26:38;95453.94;;;5.86;100.00
38400;BME280;24180;42.676;23.320;2022-10-16T04:29:03;95461.41;;;5.77;100.00
38400;BME280;24180;42.676;23.320;2022-10-16T04:31:29;95466.44;;;5.78;100.00
38400;BME280;24180;42.676;23.320;2022-10-16T04:33:54;95459.72;;;5.90;100.00
38400;BME280;24180;42.676;23.320;2022-10-16T04:36:20;95467.63;;;5.87;100.00
38400;BME280;24180;42.676;23.320;2022-10-16T04:38:45;95453.66;;;5.64;100.00
38400;BME280;24180;42.676;23.320;2022-10-16T04:41:10;95468.88;;;5.67;100.00
38400;BME280;24180;42.676;23.320;2022-10-16T04:43:36;95471.34;;;5.69;100.00
38400;BME280;24180;42.676;23.320;2022-10-16T04:46:01;95465.81;;;5.75;100.00
38400;BME280;24180;42.676;23.320;2022-10-16T04:48:30;95476.28;;;5.72;100.00
38400;BME280;24180;42.676;23.320;2022-10-16T04:50:55;95478.72;;;5.60;100.00
38400;BME280;24180;42.676;23.320;2022-10-16T04:53:21;95480.59;;;5.71;100.00
38400;BME280;24180;42.676;23.320;2022-10-16T04:55:46;95475.81;;;5.79;100.00
38400;BME280;24180;42.676;23.320;2022-10-16T04:58:12;95489.47;;;5.80;100.00
38400;BME280;24180;42.676;23.320;2022-10-16T05:00:37;95490.75;;;5.87;100.00
38400;BME280;24180;42.676;23.320;2022-10-16T05:03:03;95490.91;;;5.98;100.00
38400;BME280;24180;42.676;23.320;2022-10-16T05:05:33;95493.28;;;6.01;100.00
38400;BME280;24180;42.676;23.320;2022-10-16T05:07:58;95487.66;;;5.82;100.00
38400;BME280;24180;42.676;23.320;2022-10-16T05:10:24;95487.28;;;5.88;100.00
38400;BME280;24180;42.676;23.320;2022-10-16T05:12:49;95496.38;;;6.06;100.00
38400;BME280;24180;42.676;23.320;2022-10-16T05:15:16;95493.97;;;6.17;100.00
38400;BME280;24180;42.676;23.320;2022-10-16T05:17:42;95500.44;;;6.23;100.00
38400;BME280;24180;42.676;23.320;2022-10-16T05:20:07;95501.13;;;6.12;100.00
38400;BME280;24180;42.676;23.320;2022-10-16T05:22:33;95510.94;;;6.20;100.00
38400;BME280;24180;42.676;23.320;2022-10-16T05:24:58;95489.16;;;5.98;100.00
38400;BME280;24180;42.676;23.320;2022-10-16T05:27:24;95511.66;;;6.22;100.00
38400;BME280;24180;42.676;23.320;2022-10-16T05:29:49;95499.22;;;6.28;100.00
38400;BME280;24180;42.676;23.320;2022-10-16T05:32:16;95506.66;;;6.33;100.00
38400;BME280;24180;42.676;23.320;2022-10-16T05:34:41;95499.84;;;6.32;100.00
38400;BME280;24180;42.676;23.320;2022-10-16T05:37:07;95511.09;;;6.43;100.00
38400;BME280;24180;42.676;23.320;2022-10-16T05:39:32;95511.31;;;6.53;100.00
38400;BME280;24180;42.676;23.320;2022-10-16T05:41:58;95511.03;;;6.57;100.00
38400;BME280;24180;42.676;23.320;2022-10-16T05:44:23;95515.03;;;6.62;100.00
38400;BME280;24180;42.676;23.320;2022-10-16T05:46:49;95521.00;;;6.62;100.00
38400;BME280;24180;42.676;23.320;2022-10-16T05:49:15;95530.28;;;6.65;100.00
38400;BME280;24180;42.676;23.320;2022-10-16T05:51:40;95519.25;;;6.63;100.00
38400;BME280;24180;42.676;23.320;2022-10-16T05:54:07;95521.44;;;6.69;100.00
38400;BME280;24180;42.676;23.320;2022-10-16T05:56:33;95517.50;;;6.63;100.00
38400;BME280;24180;42.676;23.320;2022-10-16T05:58:58;95538.53;;;6.70;100.00
38400;BME280;24180;42.676;23.320;2022-10-16T06:01:24;95526.16;;;6.75;100.00
38400;BME280;24180;42.676;23.320;2022-10-16T06:03:58;95532.34;;;6.85;100.00
38400;BME280;24180;42.676;23.320;2022-10-16T06:06:26;95548.94;;;6.93;100.00
38400;BME280;24180;42.676;23.320;2022-10-16T06:08:53;95545.94;;;6.87;100.00
38400;BME280;24180;42.676;23.320;2022-10-16T06:11:22;95552.22;;;6.95;100.00
38400;BME280;24180;42.676;23.320;2022-10-16T06:13:52;95562.63;;;7.06;100.00
38400;BME280;24180;42.676;23.320;2022-10-16T06:16:18;95551.00;;;7.01;100.00
38400;BME280;24180;42.676;23.320;2022-10-16T06:18:44;95549.25;;;7.01;100.00
38400;BME280;24180;42.676;23.320;2022-10-16T06:21:17;95549.88;;;7.18;100.00
38400;BME280;24180;42.676;23.320;2022-10-16T06:23:44;95564.06;;;7.23;100.00
38400;BME280;24180;42.676;23.320;2022-10-16T06:26:13;95567.38;;;7.25;100.00
38400;BME280;24180;42.676;23.320;2022-10-16T06:28:39;95568.81;;;7.29;100.00
38400;BME280;24180;42.676;23.320;2022-10-16T06:31:06;95547.41;;;7.29;100.00
38400;BME280;24180;42.676;23.320;2022-10-16T06:33:32;95558.31;;;7.32;100.00
38400;BME280;24180;42.676;23.320;2022-10-16T06:38:30;95576.34;;;7.58;100.00
38400;BME280;24180;42.676;23.320;2022-10-16T06:40:56;95570.03;;;7.62;100.00
38400;BME280;24180;42.676;23.320;2022-10-16T06:43:22;95574.13;;;7.77;100.00
38400;BME280;24180;42.676;23.320;2022-10-16T06:45:55;95578.31;;;7.90;100.00
38400;BME280;24180;42.676;23.320;2022-10-16T06:48:22;95585.19;;;8.02;100.00
38400;BME280;24180;42.676;23.320;2022-10-16T06:51:05;95593.66;;;8.05;100.00
38400;BME280;24180;42.676;23.320;2022-10-16T06:53:33;95594.03;;;8.11;100.00
38400;BME280;24180;42.676;23.320;2022-10-16T06:56:20;95598.13;;;8.26;100.00
38400;BME280;24180;42.676;23.320;2022-10-16T06:58:46;95604.31;;;8.24;100.00
38400;BME280;24180;42.676;23.320;2022-10-16T07:01:13;95610.50;;;8.34;100.00
38400;BME280;24180;42.676;23.320;2022-10-16T07:03:40;95613.75;;;8.49;100.00
38400;BME280;24180;42.676;23.320;2022-10-16T07:06:08;95617.66;;;8.54;100.00
38400;BME280;24180;42.676;23.320;2022-10-16T07:08:35;95615.53;;;8.59;100.00
38400;BME280;24180;42.676;23.320;2022-10-16T07:11:06;95604.13;;;8.51;100.00
38400;BME280;24180;42.676;23.320;2022-10-16T07:13:34;95626.69;;;8.83;100.00
38400;BME280;24180;42.676;23.320;2022-10-16T07:16:07;95624.88;;;8.97;100.00
38400;BME280;24180;42.676;23.320;2022-10-16T07:18:34;95626.28;;;9.01;100.00
38400;BME280;24180;42.676;23.320;2022-10-16T07:23:30;95627.25;;;9.11;100.00
38400;BME280;24180;42.676;23.320;2022-10-16T07:25:55;95625.03;;;9.17;100.00
38400;BME280;24180;42.676;23.320;2022-10-16T07:28:21;95643.41;;;9.36;100.00
38400;BME280;24180;42.676;23.320;2022-10-16T07:30:47;95638.00;;;9.39;100.00
38400;BME280;24180;42.676;23.320;2022-10-16T07:33:13;95647.31;;;9.53;100.00
38400;BME280;24180;42.676;23.320;2022-10-16T07:35:50;95641.13;;;9.78;100.00
38400;BME280;24180;42.676;23.320;2022-10-16T07:38:16;95646.41;;;9.99;100.00
38400;BME280;24180;42.676;23.320;2022-10-16T07:40:41;95641.59;;;10.05;100.00
38400;BME280;24180;42.676;23.320;2022-10-16T07:43:07;95643.81;;;10.10;100.00
38400;BME280;24180;42.676;23.320;2022-10-16T07:45:32;95651.84;;;10.18;100.00
38400;BME280;24180;42.676;23.320;2022-10-16T07:47:58;95639.59;;;10.20;100.00
38400;BME280;24180;42.676;23.320;2022-10-16T07:50:23;95641.13;;;10.33;100.00
38400;BME280;24180;42.676;23.320;2022-10-16T07:52:48;95646.47;;;10.53;100.00
38400;BME280;24180;42.676;23.320;2022-10-16T07:55:14;95644.34;;;10.58;100.00
38400;BME280;24180;42.676;23.320;2022-10-16T07:57:39;95641.13;;;10.76;100.00
38400;BME280;24180;42.676;23.320;2022-10-16T08:00:05;95626.06;;;10.70;100.00
38400;BME280;24180;42.676;23.320;2022-10-16T08:02:31;95654.03;;;10.88;100.00
38400;BME280;24180;42.676;23.320;2022-10-16T08:04:57;95652.19;;;11.10;100.00
38400;BME280;24180;42.676;23.320;2022-10-16T08:07:22;95656.94;;;11.26;100.00
38400;BME280;24180;42.676;23.320;2022-10-16T08:09:51;95650.66;;;11.28;100.00
38400;BME280;24180;42.676;23.320;2022-10-16T08:12:17;95659.53;;;11.47;100.00
38400;BME280;24180;42.676;23.320;2022-10-16T08:14:43;95652.63;;;11.57;100.00
38400;BME280;24180;42.676;23.320;2022-10-16T08:17:08;95654.31;;;11.67;100.00
38400;BME280;24180;42.676;23.320;2022-10-16T08:19:33;95648.91;;;11.70;100.00
38400;BME280;24180;42.676;23.320;2022-10-16T08:22:00;95649.66;;;11.82;100.00
38400;BME280;24180;42.676;23.320;2022-10-16T08:24:26;95647.69;;;11.95;100.00
38400;BME280;24180;42.676;23.320;2022-10-16T08:26:53;95648.97;;;12.10;100.00
38400;BME280;24180;42.676;23.320;2022-10-16T08:29:19;95648.47;;;12.26;100.00
38400;BME280;24180;42.676;23.320;2022-10-16T08:31:45;95636.72;;;12.32;100.00
38400;BME280;24180;42.676;23.320;2022-10-16T08:34:10;95642.53;;;12.54;100.00
38400;BME280;24180;42.676;23.320;2022-10-16T08:36:36;95636.94;;;12.59;100.00
38400;BME280;24180;42.676;23.320;2022-10-16T08:39:01;95634.50;;;12.67;100.00
38400;BME280;24180;42.676;23.320;2022-10-16T08:44:31;95640.13;;;12.91;100.00
38400;BME280;24180;42.676;23.320;2022-10-16T08:50:09;95637.28;;;13.13;100.00
38400;BME280;24180;42.676;23.320;2022-10-16T08:52:39;95647.94;;;13.30;100.00
38400;BME280;24180;42.676;23.320;2022-10-16T08:55:06;95651.38;;;13.30;100.00
38400;BME280;24180;42.676;23.320;2022-10-16T08:57:32;95647.66;;;13.33;100.00
38400;BME280;24180;42.676;23.320;2022-10-16T09:00:00;95645.91;;;13.43;100.00
38400;BME280;24180;42.676;23.320;2022-10-16T09:05:13;95654.63;;;13.61;100.00
38400;BME280;24180;42.676;23.320;2022-10-16T09:13:29;95653.53;;;14.10;100.00
38400;BME280;24180;42.676;23.320;2022-10-16T09:16:18;95650.41;;;14.34;100.00
38400;BME280;24180;42.676;23.320;2022-10-16T09:19:24;95638.47;;;14.68;100.00
38400;BME280;24180;42.676;23.320;2022-10-16T09:21:44;95648.06;;;15.38;100.00
38400;BME280;24180;42.676;23.320;2022-10-16T09:24:18;95631.09;;;16.88;92.57
38400;BME280;24180;42.676;23.320;2022-10-16T09:26:45;95642.81;;;18.76;78.95
38400;BME280;24180;42.676;23.320;2022-10-16T09:29:12;95641.06;;;20.34;66.34
38400;BME280;24180;42.676;23.320;2022-10-16T09:31:38;95638.66;;;22.11;54.08
38400;BME280;24180;42.676;23.320;2022-10-16T09:34:03;95640.31;;;23.54;48.16
38400;BME280;24180;42.676;23.320;2022-10-16T09:36:40;95638.50;;;24.98;41.13
38400;BME280;24180;42.676;23.320;2022-10-16T09:39:09;95636.03;;;24.96;39.63
38400;BME280;24180;42.676;23.320;2022-10-16T09:41:38;95643.84;;;25.67;38.77
38400;BME280;24180;42.676;23.320;2022-10-16T09:44:17;95631.44;;;26.72;36.20
38400;BME280;24180;42.676;23.320;2022-10-16T09:46:44;95641.81;;;27.28;34.02
38400;BME280;24180;42.676;23.320;2022-10-16T09:49:21;95635.63;;;26.97;35.44
38400;BME280;24180;42.676;23.320;2022-10-16T09:51:49;95631.06;;;27.34;34.21
38400;BME280;24180;42.676;23.320;2022-10-16T09:54:18;95628.09;;;28.65;33.03
38400;BME280;24180;42.676;23.320;2022-10-16T09:56:44;95616.53;;;29.11;32.22
38400;BME280;24180;42.676;23.320;2022-10-16T09:59:19;95625.72;;;29.77;30.46
38400;BME280;24180;42.676;23.320;2022-10-16T10:01:48;95629.44;;;30.21;29.24
38400;BME280;24180;42.676;23.320;2022-10-16T10:04:14;95627.72;;;30.15;28.41
38400;BME280;24180;42.676;23.320;2022-10-16T10:06:48;95622.03;;;29.33;28.60
38400;BME280;24180;42.676;23.320;2022-10-16T10:09:26;95619.56;;;29.43;29.40
38400;BME280;24180;42.676;23.320;2022-10-16T10:11:55;95601.97;;;29.75;29.16
38400;BME280;24180;42.676;23.320;2022-10-16T10:14:35;95610.69;;;30.38;28.46
38400;BME280;24180;42.676;23.320;2022-10-16T10:19:50;95600.19;;;31.62;26.09
38400;BME280;24180;42.676;23.320;2022-10-16T10:22:25;95609.63;;;32.01;26.38
38400;BME280;24180;42.676;23.320;2022-10-16T10:39:02;95591.91;;;33.81;23.13
38400;BME280;24180;42.676;23.320;2022-10-16T10:46:36;95586.44;;;35.32;22.03
38400;BME280;24180;42.676;23.320;2022-10-16T10:55:10;95584.06;;;35.69;20.50
38400;BME280;24180;42.676;23.320;2022-10-16T11:03:32;95570.94;;;36.25;20.74
38400;BME280;24180;42.676;23.320;2022-10-16T11:08:33;95568.34;;;36.68;19.58
38400;BME280;24180;42.676;23.320;2022-10-16T11:11:04;95555.72;;;36.10;19.12
38400;BME280;24180;42.676;23.320;2022-10-16T11:16:27;95556.88;;;36.28;20.01
38400;BME280;24180;42.676;23.320;2022-10-16T11:21:27;95550.19;;;36.49;18.99
38400;BME280;24180;42.676;23.320;2022-10-16T11:24:00;95560.84;;;36.36;19.58
38400;BME280;24180;42.676;23.320;2022-10-16T11:26:30;95552.63;;;36.75;19.90
38400;BME280;24180;42.676;23.320;2022-10-16T11:28:57;95551.47;;;37.23;18.98
38400;BME280;24180;42.676;23.320;2022-10-16T11:31:38;95547.03;;;36.42;19.48
38400;BME280;24180;42.676;23.320;2022-10-16T11:34:21;95553.53;;;38.01;18.99
38400;BME280;24180;42.676;23.320;2022-10-16T11:36:53;95554.16;;;38.25;18.75
38400;BME280;24180;42.676;23.320;2022-10-16T11:39:29;95550.22;;;38.77;17.76
38400;BME280;24180;42.676;23.320;2022-10-16T11:42:11;95558.66;;;39.03;17.59
38400;BME280;24180;42.676;23.320;2022-10-16T11:47:37;95550.00;;;39.51;17.37
38400;BME280;24180;42.676;23.320;2022-10-16T11:55:41;95550.25;;;41.17;16.36
38400;BME280;24180;42.676;23.320;2022-10-16T12:01:10;95553.56;;;40.18;17.03
38400;BME280;24180;42.676;23.320;2022-10-16T12:06:33;95552.31;;;40.02;17.11
38400;BME280;24180;42.676;23.320;2022-10-16T12:09:00;95555.22;;;38.98;17.62
38400;BME280;24180;42.676;23.320;2022-10-16T12:16:32;95548.59;;;40.51;16.61
38400;BME280;24180;42.676;23.320;2022-10-16T12:19:14;95549.81;;;40.14;16.77
38400;BME280;24180;42.676;23.320;2022-10-16T12:21:41;95560.97;;;40.35;16.89
38400;BME280;24180;42.676;23.320;2022-10-16T12:24:41;95554.66;;;38.60;17.70
38400;BME280;24180;42.676;23.320;2022-10-16T12:27:29;95547.84;;;39.39;17.18
38400;BME280;24180;42.676;23.320;2022-10-16T12:30:05;95551.69;;;40.05;17.46
38400;BME280;24180;42.676;23.320;2022-10-16T12:35:00;95551.38;;;40.59;16.34
38400;BME280;24180;42.676;23.320;2022-10-16T12:37:31;95562.13;;;41.38;16.40
38400;BME280;24180;42.676;23.320;2022-10-16T12:39:59;95551.97;;;40.96;16.12
38400;BME280;24180;42.676;23.320;2022-10-16T12:44:54;95546.81;;;41.42;16.14
38400;BME280;24180;42.676;23.320;2022-10-16T12:47:36;95553.69;;;41.83;16.51
38400;BME280;24180;42.676;23.320;2022-10-16T12:50:02;95556.09;;;41.93;15.94
38400;BME280;24180;42.676;23.320;2022-10-16T12:55:00;95563.03;;;40.99;16.04
38400;BME280;24180;42.676;23.320;2022-10-16T13:03:20;95561.75;;;42.34;15.69
38400;BME280;24180;42.676;23.320;2022-10-16T13:11:41;95569.44;;;40.33;16.75
38400;BME280;24180;42.676;23.320;2022-10-16T13:14:50;95572.88;;;41.52;16.08
38400;BME280;24180;42.676;23.320;2022-10-16T13:30:16;95565.06;;;35.84;19.30
38400;BME280;24180;42.676;23.320;2022-10-16T13:33:04;95560.81;;;32.88;21.35
38400;BME280;24180;42.676;23.320;2022-10-16T13:35:34;95571.16;;;31.00;23.68
38400;BME280;24180;42.676;23.320;2022-10-16T13:38:04;95575.84;;;29.61;24.82
38400;BME280;24180;42.676;23.320;2022-10-16T13:40:30;95581.34;;;27.76;26.67
38400;BME280;24180;42.676;23.320;2022-10-16T13:42:56;95577.47;;;26.89;27.47
38400;BME280;24180;42.676;23.320;2022-10-16T13:45:25;95565.16;;;25.48;28.89
38400;BME280;24180;42.676;23.320;2022-10-16T13:48:02;95577.13;;;25.32;29.88
38400;BME280;24180;42.676;23.320;2022-10-16T13:50:28;95574.63;;;24.61;31.53
38400;BME280;24180;42.676;23.320;2022-10-16T13:53:06;95578.69;;;26.14;30.45
38400;BME280;24180;42.676;23.320;2022-10-16T13:55:32;95571.03;;;28.90;27.16
38400;BME280;24180;42.676;23.320;2022-10-16T13:58:14;95582.09;;;30.38;25.21
38400;BME280;24180;42.676;23.320;2022-10-16T14:00:51;95577.34;;;29.40;25.51
38400;BME280;24180;42.676;23.320;2022-10-16T14:03:19;95582.16;;;27.06;27.74
38400;BME280;24180;42.676;23.320;2022-10-16T14:05:50;95578.31;;;25.36;30.03
38400;BME280;24180;42.676;23.320;2022-10-16T14:08:16;95588.72;;;24.55;31.70
38400;BME280;24180;42.676;23.320;2022-10-16T14:10:42;95595.78;;;23.58;32.43
38400;BME280;24180;42.676;23.320;2022-10-16T14:13:15;95586.56;;;22.67;34.15
38400;BME280;24180;42.676;23.320;2022-10-16T14:15:47;95597.44;;;22.03;34.63
38400;BME280;24180;42.676;23.320;2022-10-16T14:18:20;95601.84;;;21.47;35.71
38400;BME280;24180;42.676;23.320;2022-10-16T14:20:48;95598.44;;;22.36;34.40
38400;BME280;24180;42.676;23.320;2022-10-16T14:23:36;95591.88;;;24.06;31.68
38400;BME280;24180;42.676;23.320;2022-10-16T14:26:23;95592.19;;;22.92;33.25
38400;BME280;24180;42.676;23.320;2022-10-16T14:29:01;95594.38;;;21.51;35.00
38400;BME280;24180;42.676;23.320;2022-10-16T14:31:31;95605.25;;;20.84;36.48
38400;BME280;24180;42.676;23.320;2022-10-16T14:33:58;95597.81;;;20.37;38.27
38400;BME280;24180;42.676;23.320;2022-10-16T14:36:24;95599.66;;;19.70;39.46
38400;BME280;24180;42.676;23.320;2022-10-16T14:39:06;95608.75;;;19.44;41.00
38400;BME280;24180;42.676;23.320;2022-10-16T14:41:46;95604.13;;;19.01;44.21
38400;BME280;24180;42.676;23.320;2022-10-16T14:44:12;95603.25;;;18.78;44.83
38400;BME280;24180;42.676;23.320;2022-10-16T14:46:40;95617.84;;;18.49;46.68
38400;BME280;24180;42.676;23.320;2022-10-16T14:51:38;95624.09;;;17.93;48.05
38400;BME280;24180;42.676;23.320;2022-10-16T14:54:08;95624.44;;;17.74;48.98
38400;BME280;24180;42.676;23.320;2022-10-16T14:59:12;95624.75;;;17.30;51.88
38400;BME280;24180;42.676;23.320;2022-10-16T15:01:39;95633.75;;;17.20;53.98
38400;BME280;24180;42.676;23.320;2022-10-16T15:04:08;95633.41;;;17.07;54.93
38400;BME280;24180;42.676;23.320;2022-10-16T15:06:34;95633.22;;;16.92;55.98
38400;BME280;24180;42.676;23.320;2022-10-16T15:08:59;95621.41;;;16.72;57.35
38400;BME280;24180;42.676;23.320;2022-10-16T15:11:25;95634.94;;;16.59;60.12